sensor_id;sensor_type;location;lat;lon;timestamp;temperature;humidity
22145;DHT22;11238;48.730;11.566;2024-02-23T00:01:20;9.10;99.90
22145;DHT22;11238;48.730;11.566;2024-02-23T00:03:46;9.10;99.90
22145;DHT22;11238;48.730;11.566;2024-02-23T00:06:12;9.10;99.90
22145;DHT22;11238;48.730;11.566;2024-02-23T00:08:38;9.10;99.90
22145;DHT22;11238;48.730;11.566;2024-02-23T00:11:05;9.20;99.90
22145;DHT22;11238;48.730;11.566;2024-02-23T00:13:32;9.20;99.90
22145;DHT22;11238;48.730;11.566;2024-02-23T00:15:57;9.10;99.90
22145;DHT22;11238;48.730;11.566;2024-02-23T00:18:23;9.10;99.90
22145;DHT22;11238;48.730;11.566;2024-02-23T00:20:50;9.20;99.90
22145;DHT22;11238;48.730;11.566;2024-02-23T00:23:15;9.20;99.90
22145;DHT22;11238;48.730;11.566;2024-02-23T00:25:42;9.10;99.90
22145;DHT22;11238;48.730;11.566;2024-02-23T00:28:08;9.10;99.90
22145;DHT22;11238;48.730;11.566;2024-02-23T00:30:34;9.20;99.90
22145;DHT22;11238;48.730;11.566;2024-02-23T00:33:00;9.20;99.90
22145;DHT22;11238;48.730;11.566;2024-02-23T00:35:27;9.20;99.90
22145;DHT22;11238;48.730;11.566;2024-02-23T00:37:53;9.20;99.90
22145;DHT22;11238;48.730;11.566;2024-02-23T00:40:19;9.20;99.90
22145;DHT22;11238;48.730;11.566;2024-02-23T00:42:45;9.20;99.90
22145;DHT22;11238;48.730;11.566;2024-02-23T00:45:11;9.30;99.90
22145;DHT22;11238;48.730;11.566;2024-02-23T00:47:37;9.20;99.90
22145;DHT22;11238;48.730;11.566;2024-02-23T00:50:03;9.30;99.90
22145;DHT22;11238;48.730;11.566;2024-02-23T00:52:29;9.20;99.90
22145;DHT22;11238;48.730;11.566;2024-02-23T00:54:55;9.30;99.90
22145;DHT22;11238;48.730;11.566;2024-02-23T00:57:22;9.20;99.90
22145;DHT22;11238;48.730;11.566;2024-02-23T00:59:53;9.20;99.90
22145;DHT22;11238;48.730;11.566;2024-02-23T01:02:19;9.20;99.90
22145;DHT22;11238;48.730;11.566;2024-02-23T01:04:45;9.10;99.90
22145;DHT22;11238;48.730;11.566;2024-02-23T01:07:11;9.10;99.90
22145;DHT22;11238;48.730;11.566;2024-02-23T01:09:37;9.10;99.90
22145;DHT22;11238;48.730;11.566;2024-02-23T01:12:03;9.10;99.90
22145;DHT22;11238;48.730;11.566;2024-02-23T01:14:29;9.00;99.90
22145;DHT22;11238;48.730;11.566;2024-02-23T01:16:54;9.10;99.90
22145;DHT22;11238;48.730;11.566;2024-02-23T01:19:20;9.00;99.90
22145;DHT22;11238;48.730;11.566;2024-02-23T01:21:46;9.00;99.90
22145;DHT22;11238;48.730;11.566;2024-02-23T01:24:13;9.00;99.90
22145;DHT22;11238;48.730;11.566;2024-02-23T01:26:39;8.90;99.90
22145;DHT22;11238;48.730;11.566;2024-02-23T01:29:06;8.90;99.90
22145;DHT22;11238;48.730;11.566;2024-02-23T01:31:32;8.90;99.90
22145;DHT22;11238;48.730;11.566;2024-02-23T01:33:58;8.80;99.90
22145;DHT22;11238;48.730;11.566;2024-02-23T01:36:24;8.60;99.90
22145;DHT22;11238;48.730;11.566;2024-02-23T01:38:50;7.70;99.90
22145;DHT22;11238;48.730;11.566;2024-02-23T01:41:16;6.90;99.90
22145;DHT22;11238;48.730;11.566;2024-02-23T01:43:41;6.40;99.90
22145;DHT22;11238;48.730;11.566;2024-02-23T01:46:07;6.20;99.90
22145;DHT22;11238;48.730;11.566;2024-02-23T01:48:34;6.00;99.90
22145;DHT22;11238;48.730;11.566;2024-02-23T01:51:00;5.90;99.90
22145;DHT22;11238;48.730;11.566;2024-02-23T01:53:26;5.80;99.90
22145;DHT22;11238;48.730;11.566;2024-02-23T01:55:53;5.70;99.90
22145;DHT22;11238;48.730;11.566;2024-02-23T01:58:20;5.70;99.90
22145;DHT22;11238;48.730;11.566;2024-02-23T02:00:46;5.60;99.90
22145;DHT22;11238;48.730;11.566;2024-02-23T02:03:12;5.70;99.90
22145;DHT22;11238;48.730;11.566;2024-02-23T02:05:38;5.70;99.90
22145;DHT22;11238;48.730;11.566;2024-02-23T02:08:05;5.70;99.90
22145;DHT22;11238;48.730;11.566;2024-02-23T02:10:31;5.70;99.90
22145;DHT22;11238;48.730;11.566;2024-02-23T02:13:02;5.70;99.90
22145;DHT22;11238;48.730;11.566;2024-02-23T02:15:29;5.70;99.90
22145;DHT22;11238;48.730;11.566;2024-02-23T02:17:54;5.70;99.90
22145;DHT22;11238;48.730;11.566;2024-02-23T02:20:23;5.70;99.90
22145;DHT22;11238;48.730;11.566;2024-02-23T02:22:49;5.70;99.90
22145;DHT22;11238;48.730;11.566;2024-02-23T02:25:15;5.60;99.90
22145;DHT22;11238;48.730;11.566;2024-02-23T02:27:41;5.70;99.90
22145;DHT22;11238;48.730;11.566;2024-02-23T02:30:08;5.60;99.90
22145;DHT22;11238;48.730;11.566;2024-02-23T02:32:35;5.60;99.90
22145;DHT22;11238;48.730;11.566;2024-02-23T02:35:01;5.60;99.90
22145;DHT22;11238;48.730;11.566;2024-02-23T02:37:27;5.60;99.90
22145;DHT22;11238;48.730;11.566;2024-02-23T02:39:53;5.60;99.90
22145;DHT22;11238;48.730;11.566;2024-02-23T02:42:19;5.60;99.90
22145;DHT22;11238;48.730;11.566;2024-02-23T02:44:45;5.60;99.90
22145;DHT22;11238;48.730;11.566;2024-02-23T02:47:11;5.60;99.90
22145;DHT22;11238;48.730;11.566;2024-02-23T02:49:38;5.50;99.90
22145;DHT22;11238;48.730;11.566;2024-02-23T02:52:04;5.50;99.90
22145;DHT22;11238;48.730;11.566;2024-02-23T02:54:30;5.50;99.90
22145;DHT22;11238;48.730;11.566;2024-02-23T02:56:56;5.50;99.90
22145;DHT22;11238;48.730;11.566;2024-02-23T02:59:23;5.50;99.90
22145;DHT22;11238;48.730;11.566;2024-02-23T03:01:49;5.50;99.90
22145;DHT22;11238;48.730;11.566;2024-02-23T03:04:15;5.50;99.90
22145;DHT22;11238;48.730;11.566;2024-02-23T03:06:41;5.60;99.90
22145;DHT22;11238;48.730;11.566;2024-02-23T03:09:07;5.50;99.90
22145;DHT22;11238;48.730;11.566;2024-02-23T03:11:34;5.50;99.90
22145;DHT22;11238;48.730;11.566;2024-02-23T03:14:03;5.40;99.90
22145;DHT22;11238;48.730;11.566;2024-02-23T03:16:28;5.40;99.90
22145;DHT22;11238;48.730;11.566;2024-02-23T03:18:57;5.40;99.90
22145;DHT22;11238;48.730;11.566;2024-02-23T03:21:22;5.50;99.90
22145;DHT22;11238;48.730;11.566;2024-02-23T03:23:48;5.40;99.90
22145;DHT22;11238;48.730;11.566;2024-02-23T03:26:14;5.40;99.90
22145;DHT22;11238;48.730;11.566;2024-02-23T03:28:43;5.50;99.90
22145;DHT22;11238;48.730;11.566;2024-02-23T03:31:11;5.50;99.90
22145;DHT22;11238;48.730;11.566;2024-02-23T03:33:37;5.50;99.90
22145;DHT22;11238;48.730;11.566;2024-02-23T03:36:03;5.50;99.90
22145;DHT22;11238;48.730;11.566;2024-02-23T03:38:29;5.50;99.90
22145;DHT22;11238;48.730;11.566;2024-02-23T03:40:56;5.60;99.90
22145;DHT22;11238;48.730;11.566;2024-02-23T03:43:22;5.60;99.90
22145;DHT22;11238;48.730;11.566;2024-02-23T03:45:48;5.60;99.90
22145;DHT22;11238;48.730;11.566;2024-02-23T03:48:13;5.60;99.90
22145;DHT22;11238;48.730;11.566;2024-02-23T03:50:39;5.60;99.90
22145;DHT22;11238;48.730;11.566;2024-02-23T03:53:05;5.60;99.90
22145;DHT22;11238;48.730;11.566;2024-02-23T03:55:31;5.60;99.90
22145;DHT22;11238;48.730;11.566;2024-02-23T03:57:57;5.60;99.90
22145;DHT22;11238;48.730;11.566;2024-02-23T04:00:23;5.60;99.90
22145;DHT22;11238;48.730;11.566;2024-02-23T04:02:49;5.60;99.90
22145;DHT22;11238;48.730;11.566;2024-02-23T04:05:15;5.60;99.90
22145;DHT22;11238;48.730;11.566;2024-02-23T04:07:41;5.60;99.90
22145;DHT22;11238;48.730;11.566;2024-02-23T04:10:08;5.60;99.90
22145;DHT22;11238;48.730;11.566;2024-02-23T04:12:34;5.60;99.90
22145;DHT22;11238;48.730;11.566;2024-02-23T04:15:00;5.60;99.90
22145;DHT22;11238;48.730;11.566;2024-02-23T04:17:26;5.60;99.90
22145;DHT22;11238;48.730;11.566;2024-02-23T04:19:52;5.60;99.90
22145;DHT22;11238;48.730;11.566;2024-02-23T04:22:19;5.60;99.90
22145;DHT22;11238;48.730;11.566;2024-02-23T04:24:45;5.50;99.90
22145;DHT22;11238;48.730;11.566;2024-02-23T04:27:11;5.50;99.90
22145;DHT22;11238;48.730;11.566;2024-02-23T04:29:37;5.50;99.90
22145;DHT22;11238;48.730;11.566;2024-02-23T04:32:04;5.50;99.90
22145;DHT22;11238;48.730;11.566;2024-02-23T04:34:30;5.50;99.90
22145;DHT22;11238;48.730;11.566;2024-02-23T04:36:57;5.50;99.90
22145;DHT22;11238;48.730;11.566;2024-02-23T04:39:22;5.40;99.90
22145;DHT22;11238;48.730;11.566;2024-02-23T04:41:48;5.50;99.90
22145;DHT22;11238;48.730;11.566;2024-02-23T04:44:14;5.50;99.90
22145;DHT22;11238;48.730;11.566;2024-02-23T04:46:40;5.40;99.90
22145;DHT22;11238;48.730;11.566;2024-02-23T04:49:06;5.50;99.90
22145;DHT22;11238;48.730;11.566;2024-02-23T04:51:32;5.40;99.90
22145;DHT22;11238;48.730;11.566;2024-02-23T04:53:58;5.40;99.90
22145;DHT22;11238;48.730;11.566;2024-02-23T04:56:24;5.40;99.90
22145;DHT22;11238;48.730;11.566;2024-02-23T04:58:51;5.40;99.90
22145;DHT22;11238;48.730;11.566;2024-02-23T05:01:16;5.40;99.90
22145;DHT22;11238;48.730;11.566;2024-02-23T05:03:42;5.50;99.90
22145;DHT22;11238;48.730;11.566;2024-02-23T05:06:08;5.50;99.90
22145;DHT22;11238;48.730;11.566;2024-02-23T05:08:35;5.50;99.90
22145;DHT22;11238;48.730;11.566;2024-02-23T05:11:01;5.50;99.90
22145;DHT22;11238;48.730;11.566;2024-02-23T05:13:26;5.50;99.90
22145;DHT22;11238;48.730;11.566;2024-02-23T05:15:55;5.50;99.90
22145;DHT22;11238;48.730;11.566;2024-02-23T05:18:22;5.50;99.90
22145;DHT22;11238;48.730;11.566;2024-02-23T05:20:48;5.50;99.90
22145;DHT22;11238;48.730;11.566;2024-02-23T05:23:14;5.50;99.90
22145;DHT22;11238;48.730;11.566;2024-02-23T05:25:42;5.50;99.90
22145;DHT22;11238;48.730;11.566;2024-02-23T05:28:08;5.50;99.90
22145;DHT22;11238;48.730;11.566;2024-02-23T05:30:33;5.50;99.90
22145;DHT22;11238;48.730;11.566;2024-02-23T05:32:59;5.50;99.90
22145;DHT22;11238;48.730;11.566;2024-02-23T05:35:29;5.50;99.90
22145;DHT22;11238;48.730;11.566;2024-02-23T05:37:55;5.50;99.90
22145;DHT22;11238;48.730;11.566;2024-02-23T05:40:21;5.50;99.90
22145;DHT22;11238;48.730;11.566;2024-02-23T05:42:47;5.50;99.90
22145;DHT22;11238;48.730;11.566;2024-02-23T05:45:12;5.50;99.90
22145;DHT22;11238;48.730;11.566;2024-02-23T05:47:39;5.50;99.90
22145;DHT22;11238;48.730;11.566;2024-02-23T05:50:05;5.50;99.90
22145;DHT22;11238;48.730;11.566;2024-02-23T05:52:32;5.50;99.90
22145;DHT22;11238;48.730;11.566;2024-02-23T05:54:59;5.50;99.90
22145;DHT22;11238;48.730;11.566;2024-02-23T05:57:28;5.40;99.90
22145;DHT22;11238;48.730;11.566;2024-02-23T05:59:54;5.40;99.90
22145;DHT22;11238;48.730;11.566;2024-02-23T06:02:24;5.50;99.90
22145;DHT22;11238;48.730;11.566;2024-02-23T06:04:50;5.40;99.90
22145;DHT22;11238;48.730;11.566;2024-02-23T06:07:16;5.50;99.90
22145;DHT22;11238;48.730;11.566;2024-02-23T06:09:43;5.40;99.90
22145;DHT22;11238;48.730;11.566;2024-02-23T06:12:09;5.50;99.90
22145;DHT22;11238;48.730;11.566;2024-02-23T06:14:35;5.40;99.90
22145;DHT22;11238;48.730;11.566;2024-02-23T06:17:02;5.40;99.90
22145;DHT22;11238;48.730;11.566;2024-02-23T06:19:28;5.40;99.90
22145;DHT22;11238;48.730;11.566;2024-02-23T06:21:54;5.40;99.90
22145;DHT22;11238;48.730;11.566;2024-02-23T06:24:20;5.40;99.90
22145;DHT22;11238;48.730;11.566;2024-02-23T06:26:46;5.40;99.90
22145;DHT22;11238;48.730;11.566;2024-02-23T06:29:15;5.40;99.90
22145;DHT22;11238;48.730;11.566;2024-02-23T06:31:40;5.40;99.90
22145;DHT22;11238;48.730;11.566;2024-02-23T06:34:07;5.40;99.90
22145;DHT22;11238;48.730;11.566;2024-02-23T06:36:34;5.50;99.90
22145;DHT22;11238;48.730;11.566;2024-02-23T06:39:00;5.60;99.90
22145;DHT22;11238;48.730;11.566;2024-02-23T06:41:26;5.60;99.90
22145;DHT22;11238;48.730;11.566;2024-02-23T06:43:52;5.60;99.90
22145;DHT22;11238;48.730;11.566;2024-02-23T06:46:19;5.80;99.90
22145;DHT22;11238;48.730;11.566;2024-02-23T06:48:51;5.80;99.90
22145;DHT22;11238;48.730;11.566;2024-02-23T06:51:17;5.90;99.90
22145;DHT22;11238;48.730;11.566;2024-02-23T06:53:43;5.90;99.90
22145;DHT22;11238;48.730;11.566;2024-02-23T06:56:08;5.90;99.90
22145;DHT22;11238;48.730;11.566;2024-02-23T06:58:35;5.80;99.90
22145;DHT22;11238;48.730;11.566;2024-02-23T07:01:01;5.80;99.90
22145;DHT22;11238;48.730;11.566;2024-02-23T07:03:28;5.80;99.90
22145;DHT22;11238;48.730;11.566;2024-02-23T07:05:55;5.80;99.90
22145;DHT22;11238;48.730;11.566;2024-02-23T07:08:21;5.70;99.90
22145;DHT22;11238;48.730;11.566;2024-02-23T07:10:46;5.70;99.90
22145;DHT22;11238;48.730;11.566;2024-02-23T07:13:13;5.60;99.90
22145;DHT22;11238;48.730;11.566;2024-02-23T07:15:38;5.60;99.90
22145;DHT22;11238;48.730;11.566;2024-02-23T07:18:04;5.60;99.90
22145;DHT22;11238;48.730;11.566;2024-02-23T07:20:30;5.60;99.90
22145;DHT22;11238;48.730;11.566;2024-02-23T07:22:56;5.60;99.90
22145;DHT22;11238;48.730;11.566;2024-02-23T07:25:22;5.60;99.90
22145;DHT22;11238;48.730;11.566;2024-02-23T07:27:48;5.50;99.90
22145;DHT22;11238;48.730;11.566;2024-02-23T07:30:17;5.50;99.90
22145;DHT22;11238;48.730;11.566;2024-02-23T07:32:46;5.50;99.90
22145;DHT22;11238;48.730;11.566;2024-02-23T07:35:12;5.40;99.90
22145;DHT22;11238;48.730;11.566;2024-02-23T07:37:38;5.50;99.90
22145;DHT22;11238;48.730;11.566;2024-02-23T07:40:04;5.40;99.90
22145;DHT22;11238;48.730;11.566;2024-02-23T07:42:34;5.40;99.90
22145;DHT22;11238;48.730;11.566;2024-02-23T07:45:04;5.40;99.90
22145;DHT22;11238;48.730;11.566;2024-02-23T07:47:31;5.40;99.90
22145;DHT22;11238;48.730;11.566;2024-02-23T07:49:57;5.40;99.90
22145;DHT22;11238;48.730;11.566;2024-02-23T07:52:24;5.50;99.90
22145;DHT22;11238;48.730;11.566;2024-02-23T07:54:53;5.50;99.90
22145;DHT22;11238;48.730;11.566;2024-02-23T07:57:19;5.50;99.90
22145;DHT22;11238;48.730;11.566;2024-02-23T07:59:46;5.50;99.90
22145;DHT22;11238;48.730;11.566;2024-02-23T08:02:12;5.50;99.90
22145;DHT22;11238;48.730;11.566;2024-02-23T08:04:37;5.50;99.90
22145;DHT22;11238;48.730;11.566;2024-02-23T08:07:04;5.50;99.90
22145;DHT22;11238;48.730;11.566;2024-02-23T08:09:30;5.50;99.90
22145;DHT22;11238;48.730;11.566;2024-02-23T08:11:56;5.50;99.90
22145;DHT22;11238;48.730;11.566;2024-02-23T08:14:21;5.50;99.90
22145;DHT22;11238;48.730;11.566;2024-02-23T08:16:47;5.60;99.90
22145;DHT22;11238;48.730;11.566;2024-02-23T08:19:14;5.60;99.90
22145;DHT22;11238;48.730;11.566;2024-02-23T08:21:41;5.60;99.90
22145;DHT22;11238;48.730;11.566;2024-02-23T08:24:07;5.60;99.90
22145;DHT22;11238;48.730;11.566;2024-02-23T08:26:33;5.70;99.90
22145;DHT22;11238;48.730;11.566;2024-02-23T08:28:59;5.70;99.90
22145;DHT22;11238;48.730;11.566;2024-02-23T08:31:25;5.80;99.90
22145;DHT22;11238;48.730;11.566;2024-02-23T08:33:52;5.80;99.90
22145;DHT22;11238;48.730;11.566;2024-02-23T08:36:17;5.90;99.90
22145;DHT22;11238;48.730;11.566;2024-02-23T08:38:43;5.90;99.90
22145;DHT22;11238;48.730;11.566;2024-02-23T08:41:09;5.90;99.90
22145;DHT22;11238;48.730;11.566;2024-02-23T08:43:35;6.00;99.90
22145;DHT22;11238;48.730;11.566;2024-02-23T08:46:01;6.00;99.90
22145;DHT22;11238;48.730;11.566;2024-02-23T08:48:27;6.00;99.90
22145;DHT22;11238;48.730;11.566;2024-02-23T08:50:53;6.00;99.90
22145;DHT22;11238;48.730;11.566;2024-02-23T08:53:20;6.10;99.90
22145;DHT22;11238;48.730;11.566;2024-02-23T08:55:45;6.10;99.90
22145;DHT22;11238;48.730;11.566;2024-02-23T08:58:11;6.10;99.90
22145;DHT22;11238;48.730;11.566;2024-02-23T09:00:37;6.20;99.90
22145;DHT22;11238;48.730;11.566;2024-02-23T09:03:03;6.20;99.90
22145;DHT22;11238;48.730;11.566;2024-02-23T09:05:29;6.20;99.90
22145;DHT22;11238;48.730;11.566;2024-02-23T09:07:55;6.40;99.90
22145;DHT22;11238;48.730;11.566;2024-02-23T09:10:21;6.40;99.90
22145;DHT22;11238;48.730;11.566;2024-02-23T09:12:47;6.50;99.90
22145;DHT22;11238;48.730;11.566;2024-02-23T09:15:13;6.50;99.90
22145;DHT22;11238;48.730;11.566;2024-02-23T09:17:40;6.50;99.90
22145;DHT22;11238;48.730;11.566;2024-02-23T09:20:07;6.60;99.90
22145;DHT22;11238;48.730;11.566;2024-02-23T09:22:33;6.50;99.90
22145;DHT22;11238;48.730;11.566;2024-02-23T09:24:59;6.50;99.90
22145;DHT22;11238;48.730;11.566;2024-02-23T09:27:24;6.50;99.90
22145;DHT22;11238;48.730;11.566;2024-02-23T09:29:50;6.40;99.90
22145;DHT22;11238;48.730;11.566;2024-02-23T09:32:17;6.50;99.90
22145;DHT22;11238;48.730;11.566;2024-02-23T09:34:43;6.40;99.90
22145;DHT22;11238;48.730;11.566;2024-02-23T09:37:09;6.40;99.90
22145;DHT22;11238;48.730;11.566;2024-02-23T09:39:35;6.40;99.90
22145;DHT22;11238;48.730;11.566;2024-02-23T09:42:01;6.40;99.90
22145;DHT22;11238;48.730;11.566;2024-02-23T09:44:34;6.40;99.90
22145;DHT22;11238;48.730;11.566;2024-02-23T09:47:02;6.40;99.90
22145;DHT22;11238;48.730;11.566;2024-02-23T09:49:39;6.40;99.90
22145;DHT22;11238;48.730;11.566;2024-02-23T09:52:09;6.40;99.90
22145;DHT22;11238;48.730;11.566;2024-02-23T09:54:38;6.40;99.90
22145;DHT22;11238;48.730;11.566;2024-02-23T09:57:07;6.50;99.90
22145;DHT22;11238;48.730;11.566;2024-02-23T09:59:35;6.50;99.90
22145;DHT22;11238;48.730;11.566;2024-02-23T10:02:14;6.50;99.90
22145;DHT22;11238;48.730;11.566;2024-02-23T10:04:42;6.50;99.90
22145;DHT22;11238;48.730;11.566;2024-02-23T10:07:09;6.50;99.90
22145;DHT22;11238;48.730;11.566;2024-02-23T10:09:35;6.50;99.90
22145;DHT22;11238;48.730;11.566;2024-02-23T10:12:02;6.50;99.90
22145;DHT22;11238;48.730;11.566;2024-02-23T10:14:28;6.50;99.90
22145;DHT22;11238;48.730;11.566;2024-02-23T10:16:54;6.60;99.90
22145;DHT22;11238;48.730;11.566;2024-02-23T10:19:21;6.50;99.90
22145;DHT22;11238;48.730;11.566;2024-02-23T10:21:47;6.50;99.90
22145;DHT22;11238;48.730;11.566;2024-02-23T10:24:15;6.50;99.90
22145;DHT22;11238;48.730;11.566;2024-02-23T10:26:42;6.60;99.90
22145;DHT22;11238;48.730;11.566;2024-02-23T10:29:08;6.60;99.90
22145;DHT22;11238;48.730;11.566;2024-02-23T10:31:35;6.60;99.90
22145;DHT22;11238;48.730;11.566;2024-02-23T10:34:07;6.60;99.90
22145;DHT22;11238;48.730;11.566;2024-02-23T10:36:41;6.60;99.90
22145;DHT22;11238;48.730;11.566;2024-02-23T10:39:17;6.60;99.90
22145;DHT22;11238;48.730;11.566;2024-02-23T10:41:57;6.70;99.90
22145;DHT22;11238;48.730;11.566;2024-02-23T10:44:28;6.70;99.90
22145;DHT22;11238;48.730;11.566;2024-02-23T10:46:55;6.70;99.90
22145;DHT22;11238;48.730;11.566;2024-02-23T10:49:23;6.70;99.90
22145;DHT22;11238;48.730;11.566;2024-02-23T10:51:52;6.70;99.90
22145;DHT22;11238;48.730;11.566;2024-02-23T10:54:19;6.70;99.90
22145;DHT22;11238;48.730;11.566;2024-02-23T10:56:50;6.70;99.90
22145;DHT22;11238;48.730;11.566;2024-02-23T10:59:19;6.70;99.90
22145;DHT22;11238;48.730;11.566;2024-02-23T11:01:54;6.70;99.90
22145;DHT22;11238;48.730;11.566;2024-02-23T11:04:23;6.80;99.90
22145;DHT22;11238;48.730;11.566;2024-02-23T11:06:54;6.70;99.90
22145;DHT22;11238;48.730;11.566;2024-02-23T11:09:22;6.70;99.90
22145;DHT22;11238;48.730;11.566;2024-02-23T11:11:56;6.80;99.90
22145;DHT22;11238;48.730;11.566;2024-02-23T11:14:36;6.80;99.90
22145;DHT22;11238;48.730;11.566;2024-02-23T11:17:05;6.80;99.90
22145;DHT22;11238;48.730;11.566;2024-02-23T11:19:40;6.80;99.90
22145;DHT22;11238;48.730;11.566;2024-02-23T11:22:10;6.80;99.90
22145;DHT22;11238;48.730;11.566;2024-02-23T11:24:42;6.80;99.90
22145;DHT22;11238;48.730;11.566;2024-02-23T11:27:13;6.90;99.90
22145;DHT22;11238;48.730;11.566;2024-02-23T11:29:40;6.90;99.90
22145;DHT22;11238;48.730;11.566;2024-02-23T11:32:16;6.90;99.90
22145;DHT22;11238;48.730;11.566;2024-02-23T11:34:53;6.90;99.90
22145;DHT22;11238;48.730;11.566;2024-02-23T11:37:20;6.90;99.90
22145;DHT22;11238;48.730;11.566;2024-02-23T11:39:46;6.90;99.90
22145;DHT22;11238;48.730;11.566;2024-02-23T11:42:13;6.80;99.90
22145;DHT22;11238;48.730;11.566;2024-02-23T11:44:39;6.90;99.90
22145;DHT22;11238;48.730;11.566;2024-02-23T11:47:10;6.90;99.90
22145;DHT22;11238;48.730;11.566;2024-02-23T11:49:35;6.90;99.90
22145;DHT22;11238;48.730;11.566;2024-02-23T11:52:01;6.80;99.90
22145;DHT22;11238;48.730;11.566;2024-02-23T11:54:28;6.90;99.90
22145;DHT22;11238;48.730;11.566;2024-02-23T11:56:54;6.80;99.90
22145;DHT22;11238;48.730;11.566;2024-02-23T11:59:22;6.90;99.90
22145;DHT22;11238;48.730;11.566;2024-02-23T12:01:49;6.90;99.90
22145;DHT22;11238;48.730;11.566;2024-02-23T12:04:15;6.90;99.90
22145;DHT22;11238;48.730;11.566;2024-02-23T12:06:42;6.90;99.90
22145;DHT22;11238;48.730;11.566;2024-02-23T12:09:09;6.90;99.90
22145;DHT22;11238;48.730;11.566;2024-02-23T12:11:35;6.90;99.90
22145;DHT22;11238;48.730;11.566;2024-02-23T12:14:01;6.90;99.90
22145;DHT22;11238;48.730;11.566;2024-02-23T12:16:34;6.90;99.90
22145;DHT22;11238;48.730;11.566;2024-02-23T12:19:02;6.90;99.90
22145;DHT22;11238;48.730;11.566;2024-02-23T12:21:28;6.90;99.90
22145;DHT22;11238;48.730;11.566;2024-02-23T12:23:55;7.00;99.90
22145;DHT22;11238;48.730;11.566;2024-02-23T12:26:21;7.00;99.90
22145;DHT22;11238;48.730;11.566;2024-02-23T12:28:47;7.00;99.90
22145;DHT22;11238;48.730;11.566;2024-02-23T12:31:12;7.00;99.90
22145;DHT22;11238;48.730;11.566;2024-02-23T12:33:39;7.00;99.90
22145;DHT22;11238;48.730;11.566;2024-02-23T12:36:06;7.00;99.90
22145;DHT22;11238;48.730;11.566;2024-02-23T12:38:36;7.00;99.90
22145;DHT22;11238;48.730;11.566;2024-02-23T12:41:15;7.00;99.90
22145;DHT22;11238;48.730;11.566;2024-02-23T12:43:41;7.00;99.90
22145;DHT22;11238;48.730;11.566;2024-02-23T12:46:07;7.00;99.90
22145;DHT22;11238;48.730;11.566;2024-02-23T12:48:35;7.00;99.90
22145;DHT22;11238;48.730;11.566;2024-02-23T12:51:01;7.00;99.90
22145;DHT22;11238;48.730;11.566;2024-02-23T12:53:37;6.90;99.90
22145;DHT22;11238;48.730;11.566;2024-02-23T12:56:25;7.00;99.90
22145;DHT22;11238;48.730;11.566;2024-02-23T12:58:51;7.00;99.90
22145;DHT22;11238;48.730;11.566;2024-02-23T13:01:19;7.00;99.90
22145;DHT22;11238;48.730;11.566;2024-02-23T13:03:45;7.00;99.90
22145;DHT22;11238;48.730;11.566;2024-02-23T13:06:11;7.00;99.90
22145;DHT22;11238;48.730;11.566;2024-02-23T13:08:38;6.90;99.90
22145;DHT22;11238;48.730;11.566;2024-02-23T13:11:06;6.90;99.90
22145;DHT22;11238;48.730;11.566;2024-02-23T13:13:32;6.90;99.90
22145;DHT22;11238;48.730;11.566;2024-02-23T13:15:59;6.90;99.90
22145;DHT22;11238;48.730;11.566;2024-02-23T13:18:28;6.80;99.90
22145;DHT22;11238;48.730;11.566;2024-02-23T13:20:53;6.80;99.90
22145;DHT22;11238;48.730;11.566;2024-02-23T13:23:20;6.80;99.90
22145;DHT22;11238;48.730;11.566;2024-02-23T13:25:46;6.80;99.90
22145;DHT22;11238;48.730;11.566;2024-02-23T13:28:12;6.80;99.90
22145;DHT22;11238;48.730;11.566;2024-02-23T13:30:38;6.80;99.90
22145;DHT22;11238;48.730;11.566;2024-02-23T13:33:05;6.80;99.90
22145;DHT22;11238;48.730;11.566;2024-02-23T13:35:31;6.80;99.90
22145;DHT22;11238;48.730;11.566;2024-02-23T13:37:58;6.90;99.90
22145;DHT22;11238;48.730;11.566;2024-02-23T13:40:24;6.90;99.90
22145;DHT22;11238;48.730;11.566;2024-02-23T13:42:50;6.90;99.90
22145;DHT22;11238;48.730;11.566;2024-02-23T13:45:16;7.00;99.90
22145;DHT22;11238;48.730;11.566;2024-02-23T13:47:44;7.00;99.90
22145;DHT22;11238;48.730;11.566;2024-02-23T13:50:20;7.00;99.90
22145;DHT22;11238;48.730;11.566;2024-02-23T13:52:48;7.00;99.90
22145;DHT22;11238;48.730;11.566;2024-02-23T13:55:14;7.00;99.90
22145;DHT22;11238;48.730;11.566;2024-02-23T13:57:40;7.00;99.90
22145;DHT22;11238;48.730;11.566;2024-02-23T14:00:06;7.10;99.90
22145;DHT22;11238;48.730;11.566;2024-02-23T14:02:38;7.10;99.90
22145;DHT22;11238;48.730;11.566;2024-02-23T14:05:07;7.10;99.90
22145;DHT22;11238;48.730;11.566;2024-02-23T14:07:34;7.10;99.90
22145;DHT22;11238;48.730;11.566;2024-02-23T14:09:59;7.10;99.90
22145;DHT22;11238;48.730;11.566;2024-02-23T14:12:25;7.10;99.90
22145;DHT22;11238;48.730;11.566;2024-02-23T14:14:51;7.10;99.90
22145;DHT22;11238;48.730;11.566;2024-02-23T14:17:17;7.00;99.90
22145;DHT22;11238;48.730;11.566;2024-02-23T14:19:43;7.00;99.90
22145;DHT22;11238;48.730;11.566;2024-02-23T14:22:09;7.10;99.90
22145;DHT22;11238;48.730;11.566;2024-02-23T14:24:36;7.00;99.90
22145;DHT22;11238;48.730;11.566;2024-02-23T14:27:01;6.90;99.90
22145;DHT22;11238;48.730;11.566;2024-02-23T14:29:27;6.80;99.90
22145;DHT22;11238;48.730;11.566;2024-02-23T14:35:40;6.70;99.90
22145;DHT22;11238;48.730;11.566;2024-02-23T14:38:06;6.50;99.90
22145;DHT22;11238;48.730;11.566;2024-02-23T14:40:31;6.60;99.90
22145;DHT22;11238;48.730;11.566;2024-02-23T14:42:57;6.60;99.90
22145;DHT22;11238;48.730;11.566;2024-02-23T14:45:24;6.60;99.90
22145;DHT22;11238;48.730;11.566;2024-02-23T14:47:50;6.60;99.90
22145;DHT22;11238;48.730;11.566;2024-02-23T14:50:16;6.70;99.90
22145;DHT22;11238;48.730;11.566;2024-02-23T14:52:42;6.60;99.90
22145;DHT22;11238;48.730;11.566;2024-02-23T14:55:10;6.60;99.90
22145;DHT22;11238;48.730;11.566;2024-02-23T14:57:37;6.50;99.90
22145;DHT22;11238;48.730;11.566;2024-02-23T15:00:04;6.60;99.90
22145;DHT22;11238;48.730;11.566;2024-02-23T15:02:30;6.60;99.90
22145;DHT22;11238;48.730;11.566;2024-02-23T15:04:56;6.60;99.90
22145;DHT22;11238;48.730;11.566;2024-02-23T15:07:22;6.60;99.90
22145;DHT22;11238;48.730;11.566;2024-02-23T15:09:48;6.70;99.90
22145;DHT22;11238;48.730;11.566;2024-02-23T15:12:14;6.70;99.90
22145;DHT22;11238;48.730;11.566;2024-02-23T15:14:40;6.70;99.90
22145;DHT22;11238;48.730;11.566;2024-02-23T15:17:06;6.60;99.90
22145;DHT22;11238;48.730;11.566;2024-02-23T15:19:31;6.60;99.90
22145;DHT22;11238;48.730;11.566;2024-02-23T15:21:58;6.60;99.90
22145;DHT22;11238;48.730;11.566;2024-02-23T15:24:23;6.60;99.90
22145;DHT22;11238;48.730;11.566;2024-02-23T15:26:52;6.60;99.90
22145;DHT22;11238;48.730;11.566;2024-02-23T15:29:18;6.60;99.90
22145;DHT22;11238;48.730;11.566;2024-02-23T15:31:44;6.60;99.90